Terminal Aerodrome Forecast
Issued by NWS Pendleton, OR

Home | Current Version | Previous Version | Text Only | Print | Product List | Glossary On
Versions: 1 2 3 4 5 6 7 8 9 10 11 12
000
FTUS46 KPDT 012300
TAFPDT
TAF
KPDT 012320Z 0200/0224 27015G25KT P6SM VCSH SCT060 BKN080
     FM020400 25013KT P6SM BKN060 OVC080
     FM021200 24009KT P6SM FEW040 SCT060
     FM022000 27012KT P6SM SCT250=

USA.gov is the U.S. government's official web portal to all federal, state and local government web resources and services.